Time;durP1;ratioP1;P1;durP2;ratioP2;P2;SDS_P1;SDS_P2;PMS_P1;PMS_P2;Temp;Humidity;BMP_temperature;BMP_pressure;BME280_temperature;BME280_humidity;BME280_pressure;Samples;Min_cycle;Max_cycle;Signal;HPM_P1;HPM_P2
2021/05/31 00:01:16;;;;;;;5.00;3.78;;;18.60;52.80;;;;;;5036183;28;20076;-60
2021/05/31 00:03:42;;;;;;;4.13;3.60;;;18.60;52.80;;;;;;5043586;28;20049;-59
2021/05/31 00:06:07;;;;;;;5.18;4.07;;;18.50;52.80;;;;;;5024214;28;20104;-60
2021/05/31 00:08:33;;;;;;;4.80;3.70;;;18.50;52.90;;;;;;5017177;28;20402;-60
2021/05/31 00:10:59;;;;;;;4.32;3.80;;;18.50;53.00;;;;;;5049073;28;20063;-59
2021/05/31 00:13:25;;;;;;;5.63;3.92;;;18.50;53.10;;;;;;5035218;28;20029;-60
2021/05/31 00:15:50;;;;;;;3.65;3.35;;;18.50;53.10;;;;;;5035365;28;20043;-59
2021/05/31 00:18:16;;;;;;;4.93;3.60;;;18.50;53.10;;;;;;5038314;28;20044;-59
2021/05/31 00:20:42;;;;;;;5.55;3.90;;;18.40;53.00;;;;;;5045995;28;20025;-60
2021/05/31 00:23:08;;;;;;;4.38;3.55;;;18.40;53.10;;;;;;5043085;28;20033;-60
2021/05/31 00:25:33;;;;;;;6.32;3.80;;;18.40;53.20;;;;;;5039446;28;20083;-60
2021/05/31 00:27:59;;;;;;;5.55;4.00;;;18.30;53.20;;;;;;5046877;28;20506;-60
2021/05/31 00:30:25;;;;;;;5.05;3.55;;;18.30;53.30;;;;;;5032343;28;20047;-59
2021/05/31 00:32:51;;;;;;;5.32;3.97;;;18.30;53.30;;;;;;5046644;28;20082;-60
2021/05/31 00:35:17;;;;;;;5.50;4.13;;;18.30;53.40;;;;;;5023937;28;20038;-59
2021/05/31 00:37:43;;;;;;;5.05;4.00;;;18.30;53.40;;;;;;5048481;28;20028;-59
2021/05/31 00:40:09;;;;;;;4.43;3.80;;;18.20;53.40;;;;;;5028707;28;20053;-60
2021/05/31 00:42:35;;;;;;;6.00;3.60;;;18.20;53.50;;;;;;5027962;28;20397;-60
2021/05/31 00:45:01;;;;;;;4.10;3.47;;;18.10;53.50;;;;;;5043294;28;20030;-60
2021/05/31 00:47:27;;;;;;;5.40;4.03;;;18.10;53.60;;;;;;5048240;28;20554;-59
2021/05/31 00:49:54;;;;;;;5.50;4.18;;;18.10;53.70;;;;;;5042072;28;20025;-60
2021/05/31 00:52:19;;;;;;;4.38;3.70;;;18.10;53.70;;;;;;5044679;28;20212;-59
2021/05/31 00:54:45;;;;;;;5.13;3.83;;;18.10;53.80;;;;;;5033428;28;20030;-60
2021/05/31 00:57:10;;;;;;;7.32;3.80;;;18.00;53.80;;;;;;5031297;28;20066;-59
2021/05/31 00:59:36;;;;;;;4.75;3.60;;;18.00;53.90;;;;;;5028154;28;20115;-59
2021/05/31 01:02:02;;;;;;;4.45;3.80;;;18.00;54.10;;;;;;5056370;28;20083;-59
2021/05/31 01:04:27;;;;;;;4.05;3.65;;;18.00;54.10;;;;;;5045968;28;20474;-59
2021/05/31 01:07:27;;;;;;;5.13;4.03;;;17.90;54.10;;;;;;5035359;28;20116;-59
2021/05/31 01:10:26;;;;;;;4.38;3.65;;;17.90;54.10;;;;;;5047563;28;20071;-60
2021/05/31 01:13:19;;;;;;;4.82;3.72;;;17.90;54.20;;;;;;5039946;28;20024;-60
2021/05/31 01:15:51;;;;;;;6.78;3.88;;;17.90;54.20;;;;;;5030231;28;20029;-59
2021/05/31 01:18:40;;;;;;;4.97;3.90;;;17.90;54.20;;;;;;5031598;28;20029;-60
2021/05/31 01:21:35;;;;;;;4.28;3.80;;;17.80;54.30;;;;;;5032155;28;20155;-60
2021/05/31 01:24:08;;;;;;;4.63;4.13;;;17.80;54.50;;;;;;5021641;28;20582;-60
2021/05/31 01:26:47;;;;;;;5.93;4.55;;;17.80;54.50;;;;;;5023179;28;20037;-59
2021/05/31 01:29:13;;;;;;;4.78;4.28;;;17.80;54.50;;;;;;5030700;28;20024;-60
2021/05/31 01:31:49;;;;;;;5.65;4.30;;;17.70;54.50;;;;;;5052284;28;20021;-60
2021/05/31 01:34:19;;;;;;;4.25;3.72;;;17.70;54.70;;;;;;5056107;28;20291;-59
2021/05/31 01:36:46;;;;;;;4.57;3.85;;;17.60;54.70;;;;;;5040823;28;20021;-59
2021/05/31 01:39:13;;;;;;;7.03;4.20;;;17.70;54.80;;;;;;5022727;28;20049;-59
2021/05/31 01:41:39;;;;;;;6.88;4.28;;;17.60;54.80;;;;;;5057007;28;20021;-60
2021/05/31 01:44:04;;;;;;;4.65;3.65;;;17.60;54.90;;;;;;5012494;28;20037;-59
2021/05/31 01:46:30;;;;;;;5.80;3.78;;;17.60;55.00;;;;;;5035408;28;20028;-59
2021/05/31 01:48:55;;;;;;;4.65;4.05;;;17.60;55.00;;;;;;5028031;28;20041;-59
2021/05/31 01:51:21;;;;;;;4.70;3.75;;;17.60;55.10;;;;;;5032792;28;20025;-60
2021/05/31 01:53:46;;;;;;;5.18;3.90;;;17.60;55.20;;;;;;5039468;28;20039;-60
2021/05/31 01:56:13;;;;;;;4.60;3.80;;;17.50;55.10;;;;;;5032364;28;20055;-60
2021/05/31 01:58:39;;;;;;;4.55;3.83;;;17.50;55.20;;;;;;5027881;28;20037;-60
2021/05/31 02:01:06;;;;;;;4.80;3.50;;;17.50;55.30;;;;;;5039571;28;20052;-59
2021/05/31 02:03:31;;;;;;;5.15;3.80;;;17.40;55.40;;;;;;5044253;28;20445;-59
2021/05/31 02:05:57;;;;;;;5.20;3.60;;;17.50;55.50;;;;;;5057787;28;20143;-59
2021/05/31 02:08:22;;;;;;;4.78;3.75;;;17.40;55.50;;;;;;5062012;28;20375;-59
2021/05/31 02:10:48;;;;;;;5.13;4.00;;;17.40;55.60;;;;;;5057636;28;20033;-59
2021/05/31 02:13:15;;;;;;;4.32;3.70;;;17.40;55.80;;;;;;5021008;28;20036;-60
2021/05/31 02:15:41;;;;;;;5.57;3.90;;;17.40;55.80;;;;;;5050690;28;20024;-59
2021/05/31 02:18:25;;;;;;;5.40;3.78;;;17.30;55.80;;;;;;5031540;28;20543;-59
2021/05/31 02:21:14;;;;;;;5.43;3.95;;;17.30;56.00;;;;;;5050090;28;20050;-59
2021/05/31 02:23:41;;;;;;;6.80;4.65;;;17.30;56.10;;;;;;5037642;28;20037;-59
2021/05/31 02:26:07;;;;;;;8.60;4.80;;;17.20;56.10;;;;;;5031580;28;20029;-59
2021/05/31 02:28:32;;;;;;;4.57;4.18;;;17.20;56.30;;;;;;5030562;28;20044;-59
2021/05/31 02:30:59;;;;;;;6.75;4.97;;;17.20;56.40;;;;;;5044353;28;20029;-59
2021/05/31 02:33:25;;;;;;;8.23;4.13;;;17.20;56.40;;;;;;5033428;28;20055;-59
2021/05/31 02:35:50;;;;;;;6.15;4.68;;;17.20;56.50;;;;;;5040845;28;20012;-60
2021/05/31 02:38:16;;;;;;;7.07;4.20;;;17.10;56.50;;;;;;5056726;28;20031;-59
2021/05/31 02:40:41;;;;;;;8.55;4.68;;;17.10;56.50;;;;;;5042692;28;20064;-60
2021/05/31 02:43:09;;;;;;;5.55;4.38;;;17.10;56.60;;;;;;5053683;28;20029;-60
2021/05/31 02:45:35;;;;;;;6.57;4.03;;;17.10;56.70;;;;;;5044274;28;20384;-59
2021/05/31 02:48:00;;;;;;;8.63;4.93;;;17.00;56.70;;;;;;5045633;28;20035;-59
2021/05/31 02:50:27;;;;;;;7.38;4.70;;;17.00;56.80;;;;;;5040832;28;20074;-59
2021/05/31 02:52:53;;;;;;;8.25;5.07;;;17.00;56.90;;;;;;5052555;28;20107;-59
2021/05/31 02:55:20;;;;;;;5.40;4.22;;;17.00;57.00;;;;;;5056513;28;20100;-59
2021/05/31 02:57:45;;;;;;;12.20;5.32;;;17.00;57.10;;;;;;5044871;28;20035;-59
2021/05/31 03:00:13;;;;;;;7.90;4.60;;;17.00;57.10;;;;;;5063628;28;20025;-59
2021/05/31 03:02:38;;;;;;;7.85;4.20;;;16.90;57.10;;;;;;5054555;28;20033;-59
2021/05/31 03:05:09;;;;;;;8.32;4.97;;;16.90;57.20;;;;;;5055136;28;20076;-59
2021/05/31 03:07:34;;;;;;;7.13;5.15;;;16.90;57.20;;;;;;5053701;28;20033;-59
2021/05/31 03:10:00;;;;;;;8.02;5.28;;;16.90;57.20;;;;;;5048879;28;20032;-59
2021/05/31 03:12:25;;;;;;;12.80;6.07;;;16.90;57.20;;;;;;5054043;28;20025;-59
2021/05/31 03:14:52;;;;;;;10.57;5.90;;;16.80;57.20;;;;;;5051798;28;20021;-59
2021/05/31 03:17:19;;;;;;;7.63;5.68;;;16.80;57.30;;;;;;5053326;28;20067;-60
2021/05/31 03:19:44;;;;;;;10.57;6.07;;;16.80;57.30;;;;;;5034250;28;20024;-60
2021/05/31 03:22:10;;;;;;;6.05;4.78;;;16.80;57.30;;;;;;5042357;28;20028;-59
2021/05/31 03:24:36;;;;;;;6.53;4.93;;;16.70;57.30;;;;;;5021467;28;20113;-59
2021/05/31 03:27:02;;;;;;;5.68;5.13;;;16.70;57.30;;;;;;5032593;28;20029;-59
2021/05/31 03:29:28;;;;;;;5.57;4.75;;;16.70;57.30;;;;;;5036102;28;20429;-59
2021/05/31 03:31:53;;;;;;;6.85;4.85;;;16.70;57.40;;;;;;5049070;28;20060;-59
2021/05/31 03:34:19;;;;;;;7.55;4.78;;;16.70;57.40;;;;;;5035846;28;20226;-59
2021/05/31 03:36:44;;;;;;;6.75;4.50;;;16.60;57.40;;;;;;5044944;28;20025;-59
2021/05/31 03:39:10;;;;;;;5.65;4.82;;;16.60;57.40;;;;;;5020793;28;20040;-59
2021/05/31 03:41:35;;;;;;;6.03;4.43;;;16.60;57.40;;;;;;5036675;28;20029;-59
2021/05/31 03:44:01;;;;;;;5.65;4.60;;;16.60;57.40;;;;;;5042907;28;20514;-59
2021/05/31 03:46:26;;;;;;;6.43;4.78;;;16.60;57.50;;;;;;5055003;28;20392;-59
2021/05/31 03:48:52;;;;;;;7.03;4.57;;;16.60;57.50;;;;;;5049634;28;20040;-58
2021/05/31 03:51:19;;;;;;;5.55;3.80;;;16.50;57.50;;;;;;5025184;28;20059;-59
2021/05/31 03:53:44;;;;;;;5.93;4.07;;;16.50;57.50;;;;;;5052995;28;20108;-59
2021/05/31 03:56:10;;;;;;;7.93;3.85;;;16.40;57.50;;;;;;5061900;28;20175;-59
2021/05/31 03:58:36;;;;;;;9.93;4.63;;;16.40;57.60;;;;;;5037422;28;20029;-59
2021/05/31 04:01:02;;;;;;;8.27;4.28;;;16.40;57.60;;;;;;5057637;28;20044;-59
2021/05/31 04:03:28;;;;;;;5.05;4.45;;;16.40;57.70;;;;;;5041334;28;20033;-59
2021/05/31 04:11:37;;;;;;;4.93;3.83;;;16.30;57.80;;;;;;5042024;28;20409;-59
2021/05/31 04:14:10;;;;;;;6.72;4.18;;;16.30;57.90;;;;;;5058945;28;20094;-59
2021/05/31 04:16:37;;;;;;;4.57;3.90;;;16.20;57.90;;;;;;5042781;28;20107;-59
2021/05/31 04:19:03;;;;;;;7.82;3.92;;;16.20;57.90;;;;;;5060885;28;20093;-60
2021/05/31 04:21:29;;;;;;;5.55;3.60;;;16.20;58.00;;;;;;5042187;28;20447;-59
2021/05/31 04:23:54;;;;;;;5.93;3.92;;;16.20;58.00;;;;;;5046135;28;20032;-59
2021/05/31 04:26:20;;;;;;;6.68;3.60;;;16.20;58.10;;;;;;5058930;28;20190;-59
2021/05/31 04:28:46;;;;;;;9.88;4.55;;;16.20;58.10;;;;;;5046395;28;20048;-60
2021/05/31 04:31:12;;;;;;;6.45;4.95;;;16.10;58.10;;;;;;5051285;28;20040;-59
2021/05/31 04:33:38;;;;;;;5.57;4.50;;;16.10;58.30;;;;;;5064699;28;20104;-59
2021/05/31 04:36:04;;;;;;;7.25;4.43;;;16.10;58.20;;;;;;5059600;28;20366;-59
2021/05/31 04:38:29;;;;;;;7.22;4.50;;;16.10;58.30;;;;;;5038463;28;20060;-59
2021/05/31 04:40:55;;;;;;;11.50;5.22;;;16.00;58.20;;;;;;5046667;28;20097;-59
2021/05/31 04:43:21;;;;;;;11.45;4.18;;;16.10;58.50;;;;;;5057380;28;20025;-59
2021/05/31 04:45:46;;;;;;;9.52;4.38;;;16.00;58.40;;;;;;5060859;28;20031;-59
2021/05/31 04:48:12;;;;;;;11.93;4.35;;;16.10;58.60;;;;;;5045069;28;20361;-59
2021/05/31 04:50:37;;;;;;;9.27;4.50;;;16.00;58.80;;;;;;5037315;28;20052;-59
2021/05/31 04:53:03;;;;;;;11.43;4.43;;;16.00;58.90;;;;;;5053668;28;20031;-60
2021/05/31 04:55:28;;;;;;;8.52;4.32;;;16.00;58.80;;;;;;5048147;28;20067;-59
2021/05/31 04:57:54;;;;;;;11.27;4.38;;;16.00;58.80;;;;;;5047945;28;20029;-59
2021/05/31 05:00:20;;;;;;;11.10;4.70;;;16.00;58.70;;;;;;5053241;28;20064;-59
2021/05/31 05:02:45;;;;;;;10.15;4.47;;;16.00;58.60;;;;;;5037970;28;20036;-60
2021/05/31 05:05:12;;;;;;;8.30;4.00;;;15.90;58.50;;;;;;5042223;28;20036;-59
2021/05/31 05:07:56;;;;;;;8.32;4.75;;;16.00;58.60;;;;;;5020548;28;20035;-59
2021/05/31 05:10:22;;;;;;;8.77;4.47;;;16.00;58.50;;;;;;5056226;28;20129;-59
2021/05/31 05:12:51;;;;;;;12.30;4.25;;;16.00;58.40;;;;;;5034390;28;20068;-59
2021/05/31 05:15:17;;;;;;;12.82;5.05;;;16.00;58.50;;;;;;5060606;28;20036;-59
2021/05/31 05:17:43;;;;;;;15.95;4.65;;;16.00;58.50;;;;;;5051241;28;20406;-59
2021/05/31 05:20:10;;;;;;;18.83;5.10;;;16.00;58.60;;;;;;5045628;28;20013;-59
2021/05/31 05:22:35;;;;;;;10.10;4.90;;;16.00;58.70;;;;;;5045415;28;20633;-59
2021/05/31 05:25:01;;;;;;;9.32;4.72;;;15.90;58.70;;;;;;5048244;28;20264;-59
2021/05/31 05:27:26;;;;;;;12.05;5.32;;;15.90;58.90;;;;;;5033948;28;20060;-59
2021/05/31 05:29:52;;;;;;;10.85;4.43;;;15.90;58.90;;;;;;5045028;28;20017;-59
2021/05/31 05:32:17;;;;;;;11.30;4.57;;;15.90;58.80;;;;;;5050932;28;20068;-59
2021/05/31 05:34:43;;;;;;;16.13;4.72;;;15.90;58.70;;;;;;5041258;28;20141;-59
2021/05/31 05:37:16;;;;;;;8.98;4.22;;;15.90;58.60;;;;;;5052018;28;20366;-59
2021/05/31 05:45:14;;;;;;;7.53;4.60;;;15.90;58.60;;;;;;5038159;28;20115;-59
2021/05/31 05:47:45;;;;;;;10.75;4.63;;;15.80;58.60;;;;;;5024369;28;20031;-59
2021/05/31 05:50:13;;;;;;;6.53;4.32;;;15.80;58.40;;;;;;5048355;28;20032;-59
2021/05/31 05:52:38;;;;;;;9.85;4.20;;;15.80;58.40;;;;;;5038966;28;20439;-59
2021/05/31 05:55:08;;;;;;;10.73;4.65;;;15.80;58.40;;;;;;5047963;28;20033;-59
2021/05/31 05:57:34;;;;;;;11.57;4.55;;;15.80;58.40;;;;;;5039117;28;20416;-59
2021/05/31 06:00:01;;;;;;;7.95;4.20;;;15.80;58.40;;;;;;5047934;28;20104;-60
2021/05/31 06:02:27;;;;;;;8.50;4.10;;;15.80;58.40;;;;;;5047435;28;20439;-60
2021/05/31 06:04:52;;;;;;;7.82;3.83;;;15.80;58.40;;;;;;5050922;28;20479;-59
2021/05/31 06:07:18;;;;;;;8.10;3.50;;;15.70;58.40;;;;;;5057437;28;20124;-60
2021/05/31 06:09:43;;;;;;;13.73;4.63;;;15.70;58.40;;;;;;5053653;28;20035;-59
2021/05/31 06:12:09;;;;;;;7.10;3.85;;;15.70;58.60;;;;;;5054047;28;20020;-59
2021/05/31 06:14:34;;;;;;;7.70;4.30;;;15.70;58.60;;;;;;5018150;28;20520;-59
2021/05/31 06:17:00;;;;;;;6.40;3.63;;;15.70;58.60;;;;;;5048757;28;20028;-59
2021/05/31 06:19:28;;;;;;;8.20;4.03;;;15.70;58.60;;;;;;5042699;28;20476;-59
2021/05/31 06:21:53;;;;;;;11.10;4.10;;;15.70;58.70;;;;;;5033238;28;20315;-60
2021/05/31 06:24:19;;;;;;;9.75;3.97;;;15.70;58.70;;;;;;5043832;28;20227;-59
2021/05/31 06:26:44;;;;;;;8.20;3.70;;;15.60;58.70;;;;;;5060206;28;20094;-59
2021/05/31 06:29:10;;;;;;;10.52;4.20;;;15.60;58.70;;;;;;5063400;28;20494;-59
2021/05/31 06:31:35;;;;;;;7.18;3.40;;;15.60;58.70;;;;;;5065321;28;20036;-59
2021/05/31 06:34:01;;;;;;;15.18;3.92;;;15.60;58.80;;;;;;5054479;28;20123;-59
2021/05/31 06:36:27;;;;;;;17.55;4.50;;;15.60;58.80;;;;;;5034843;28;20037;-59
2021/05/31 06:38:52;;;;;;;15.90;4.05;;;15.60;59.50;;;;;;5034226;28;20590;-60
2021/05/31 06:41:18;;;;;;;7.80;4.22;;;15.60;58.90;;;;;;5055799;28;20086;-59
2021/05/31 06:43:43;;;;;;;15.50;4.30;;;15.60;59.00;;;;;;5048013;28;20158;-60
2021/05/31 06:46:09;;;;;;;12.43;3.67;;;15.60;59.00;;;;;;5036957;28;20043;-59
2021/05/31 06:48:35;;;;;;;9.88;3.63;;;15.60;59.00;;;;;;5043057;28;20041;-59
2021/05/31 06:51:00;;;;;;;11.85;3.60;;;15.60;59.10;;;;;;5049541;28;20031;-60
2021/05/31 06:53:26;;;;;;;11.10;3.53;;;15.60;59.10;;;;;;5045069;28;20086;-59
2021/05/31 06:55:51;;;;;;;20.90;4.03;;;15.60;59.20;;;;;;5047760;28;20090;-59
2021/05/31 06:58:17;;;;;;;18.17;4.43;;;15.60;59.20;;;;;;5033831;28;20527;-59
2021/05/31 07:00:44;;;;;;;14.57;4.10;;;15.60;59.20;;;;;;5036296;28;20034;-59
2021/05/31 07:03:09;;;;;;;13.30;3.92;;;15.60;59.30;;;;;;5038459;28;20048;-59
2021/05/31 07:05:35;;;;;;;17.73;3.80;;;15.60;59.50;;;;;;5040648;28;20032;-59
2021/05/31 07:08:00;;;;;;;8.88;3.78;;;15.50;59.70;;;;;;5048066;28;20119;-59
2021/05/31 07:10:28;;;;;;;18.23;3.90;;;15.50;60.00;;;;;;5036755;28;20465;-60
2021/05/31 07:12:54;;;;;;;12.77;4.30;;;15.50;60.10;;;;;;5024827;28;20040;-59
2021/05/31 07:15:20;;;;;;;42.58;6.15;;;15.50;60.40;;;;;;5002095;28;20021;-60
2021/05/31 07:17:46;;;;;;;21.77;4.68;;;15.50;60.30;;;;;;5033398;28;20048;-59
2021/05/31 07:20:12;;;;;;;20.83;5.18;;;15.50;60.40;;;;;;5036199;28;20492;-59
2021/05/31 07:22:40;;;;;;;22.33;3.92;;;15.50;60.40;;;;;;5035305;28;20103;-59
2021/05/31 07:25:07;;;;;;;23.33;4.40;;;15.50;61.20;;;;;;5047744;28;20128;-59
2021/05/31 07:27:33;;;;;;;10.70;3.60;;;15.50;60.70;;;;;;5046436;28;20036;-59
2021/05/31 07:29:58;;;;;;;30.25;4.63;;;15.50;60.70;;;;;;5055830;28;20029;-59
2021/05/31 07:32:24;;;;;;;13.45;3.15;;;15.50;60.90;;;;;;5039271;28;20029;-60
2021/05/31 07:34:49;;;;;;;20.33;4.35;;;15.50;60.90;;;;;;5031309;28;20419;-59
2021/05/31 07:37:15;;;;;;;21.95;5.53;;;15.50;60.90;;;;;;5050300;28;20067;-59
2021/05/31 07:39:40;;;;;;;22.42;4.00;;;15.50;60.80;;;;;;5039678;28;20104;-59
2021/05/31 07:42:06;;;;;;;19.58;4.38;;;15.50;60.80;;;;;;5041957;28;20021;-59
2021/05/31 07:44:32;;;;;;;7.63;3.13;;;15.50;61.00;;;;;;5044580;28;20037;-59
2021/05/31 07:46:57;;;;;;;22.00;4.55;;;15.50;61.00;;;;;;5030367;28;20033;-59
2021/05/31 07:49:23;;;;;;;17.48;4.18;;;15.50;61.10;;;;;;5041653;28;20110;-59
2021/05/31 07:51:50;;;;;;;19.17;4.30;;;15.50;61.10;;;;;;5055821;28;20577;-59
2021/05/31 07:54:16;;;;;;;17.15;5.15;;;15.50;61.10;;;;;;5045575;28;20104;-59
2021/05/31 07:56:42;;;;;;;20.90;4.28;;;15.50;61.10;;;;;;5048550;28;20496;-59
2021/05/31 07:59:07;;;;;;;28.70;4.32;;;15.50;61.10;;;;;;5048884;28;20044;-59
2021/05/31 08:01:36;;;;;;;25.77;4.88;;;15.60;61.10;;;;;;5044642;28;20034;-59
2021/05/31 08:04:04;;;;;;;26.30;4.88;;;15.60;61.10;;;;;;5026216;28;20543;-59
2021/05/31 08:06:30;;;;;;;18.55;4.90;;;15.60;61.20;;;;;;5027593;28;20025;-59
2021/05/31 08:08:55;;;;;;;23.27;4.53;;;15.70;61.20;;;;;;5026457;28;20466;-59
2021/05/31 08:11:21;;;;;;;28.02;4.90;;;15.70;61.10;;;;;;5026272;28;20111;-59
2021/05/31 08:13:46;;;;;;;32.63;4.68;;;15.70;61.20;;;;;;5019450;28;20041;-59
2021/05/31 08:16:16;;;;;;;21.63;4.80;;;15.70;61.50;;;;;;5037448;28;20111;-60
2021/05/31 08:18:41;;;;;;;23.23;5.15;;;15.70;61.20;;;;;;5040174;28;20563;-59
2021/05/31 08:21:07;;;;;;;26.90;4.63;;;15.70;61.50;;;;;;5046420;28;20029;-59
2021/05/31 08:23:32;;;;;;;29.60;4.65;;;15.70;61.60;;;;;;5044584;28;20082;-59
2021/05/31 08:25:58;;;;;;;19.45;4.70;;;15.80;61.80;;;;;;5044750;28;20106;-59
2021/05/31 08:28:24;;;;;;;29.88;5.85;;;15.80;61.30;;;;;;5025827;28;20170;-59
2021/05/31 08:30:49;;;;;;;25.08;4.70;;;15.80;61.50;;;;;;5043927;28;20020;-59
2021/05/31 08:33:15;;;;;;;26.25;5.20;;;15.80;61.60;;;;;;5026598;28;20607;-60
2021/05/31 08:35:41;;;;;;;38.15;5.63;;;15.80;61.70;;;;;;5029445;28;20032;-59
2021/05/31 08:38:07;;;;;;;39.83;6.07;;;15.90;61.80;;;;;;5028653;28;20025;-59
2021/05/31 08:40:32;;;;;;;30.10;5.70;;;15.90;61.80;;;;;;5030296;28;20078;-58
2021/05/31 08:42:58;;;;;;;26.95;5.40;;;15.90;61.70;;;;;;5044276;28;20709;-60
2021/05/31 08:45:25;;;;;;;44.35;7.05;;;15.90;61.90;;;;;;5025956;28;20364;-60
2021/05/31 08:47:53;;;;;;;24.70;5.70;;;15.90;61.80;;;;;;4993350;28;20032;-60
2021/05/31 08:50:23;;;;;;;33.05;6.75;;;15.90;61.90;;;;;;5040623;28;20025;-59
2021/05/31 08:52:50;;;;;;;29.60;5.38;;;16.00;61.90;;;;;;5043937;28;20060;-60
2021/05/31 08:55:16;;;;;;;29.30;5.75;;;16.00;62.10;;;;;;5044069;28;20036;-60
2021/05/31 08:57:42;;;;;;;33.83;6.72;;;16.00;62.20;;;;;;5028525;28;20068;-60
2021/05/31 09:00:11;;;;;;;34.08;6.15;;;16.00;62.20;;;;;;5027551;28;20043;-59
2021/05/31 09:02:37;;;;;;;38.25;6.00;;;16.10;62.10;;;;;;5027514;28;20165;-59
2021/05/31 09:05:03;;;;;;;33.20;5.80;;;16.10;62.40;;;;;;5028388;28;20029;-60
2021/05/31 09:07:28;;;;;;;32.55;5.25;;;16.10;62.20;;;;;;5024201;28;20060;-60
2021/05/31 09:09:54;;;;;;;37.47;6.40;;;16.10;62.20;;;;;;5045671;28;20029;-59
2021/05/31 09:12:28;;;;;;;28.10;5.32;;;16.20;62.20;;;;;;5028140;28;20394;-60
2021/05/31 09:14:54;;;;;;;30.77;6.47;;;16.20;62.20;;;;;;5044312;28;20730;-59
2021/05/31 09:17:27;;;;;;;34.88;5.72;;;16.20;61.90;;;;;;5029546;28;20055;-59
2021/05/31 09:19:53;;;;;;;47.38;6.30;;;16.30;61.90;;;;;;5043144;28;20111;-60
2021/05/31 09:22:19;;;;;;;55.78;7.03;;;16.30;62.00;;;;;;5024717;28;20143;-60
2021/05/31 09:25:00;;;;;;;34.35;7.07;;;16.30;61.90;;;;;;5026496;28;20071;-60
2021/05/31 09:27:26;;;;;;;55.45;7.18;;;16.30;61.70;;;;;;5041291;28;20040;-59
2021/05/31 09:29:59;;;;;;;45.50;6.93;;;16.40;61.40;;;;;;5026884;28;20033;-59
2021/05/31 09:32:25;;;;;;;50.33;7.65;;;16.40;61.30;;;;;;5026498;28;20028;-59
2021/05/31 09:35:19;;;;;;;45.70;7.75;;;16.40;61.00;;;;;;5011643;28;20063;-59
2021/05/31 09:37:45;;;;;;;43.13;5.88;;;16.50;61.00;;;;;;5026652;28;20033;-59
2021/05/31 09:40:12;;;;;;;47.60;6.93;;;16.50;60.90;;;;;;5040311;28;20052;-60
2021/05/31 09:42:47;;;;;;;35.42;6.90;;;16.50;60.80;;;;;;5026495;28;20542;-60
2021/05/31 09:45:13;;;;;;;56.15;6.88;;;16.50;60.70;;;;;;5024038;28;20049;-59
2021/05/31 09:47:38;;;;;;;33.65;6.05;;;16.50;60.80;;;;;;5040839;28;20025;-59
2021/05/31 09:50:05;;;;;;;29.20;5.15;;;16.60;60.40;;;;;;5042608;28;20033;-59
2021/05/31 09:52:31;;;;;;;31.15;5.68;;;16.60;60.30;;;;;;5026196;28;20508;-59
2021/05/31 09:54:56;;;;;;;32.20;6.03;;;16.60;60.10;;;;;;5025455;28;20037;-60
2021/05/31 09:57:22;;;;;;;35.25;5.68;;;16.70;60.00;;;;;;5040706;28;20061;-60
2021/05/31 09:59:55;;;;;;;30.05;5.22;;;16.70;59.90;;;;;;5026857;28;20021;-60
2021/05/31 10:02:55;;;;;;;29.17;6.13;;;16.80;59.80;;;;;;5024636;28;20020;-59
2021/05/31 10:10:08;;;;;;;42.92;5.88;;;16.90;59.70;;;;;;5032445;28;20388;-59
2021/05/31 10:12:54;;;;;;;42.72;6.38;;;16.90;59.60;;;;;;5040852;28;20048;-58
2021/05/31 10:15:23;;;;;;;30.13;5.75;;;17.00;59.30;;;;;;5041807;28;20507;-59
2021/05/31 10:17:49;;;;;;;34.08;5.63;;;17.00;59.40;;;;;;5029771;28;20032;-59
2021/05/31 10:20:15;;;;;;;39.33;5.97;;;17.10;59.30;;;;;;5039283;28;20025;-59
2021/05/31 10:22:40;;;;;;;31.08;5.43;;;17.10;59.00;;;;;;5021793;28;20132;-61
2021/05/31 10:25:07;;;;;;;39.13;6.35;;;17.20;58.80;;;;;;5039048;28;20582;-61
2021/05/31 10:27:37;;;;;;;40.05;6.53;;;17.20;58.70;;;;;;5043045;28;20021;-59
2021/05/31 10:30:04;;;;;;;36.25;5.95;;;17.30;58.80;;;;;;5024440;28;20040;-59
2021/05/31 10:32:29;;;;;;;43.28;6.78;;;17.40;58.70;;;;;;5026464;28;20070;-59
2021/05/31 10:34:55;;;;;;;27.63;5.40;;;17.40;58.50;;;;;;5041023;28;20435;-60
2021/05/31 10:37:23;;;;;;;37.95;6.57;;;17.50;58.30;;;;;;5024717;28;20044;-59
2021/05/31 10:40:04;;;;;;;35.80;5.22;;;17.60;58.00;;;;;;5024173;28;20025;-59
2021/05/31 10:42:47;;;;;;;34.65;6.30;;;17.60;58.10;;;;;;5022936;28;20033;-61
2021/05/31 10:45:25;;;;;;;33.75;5.60;;;17.70;58.00;;;;;;5025664;28;20036;-59
2021/05/31 10:48:15;;;;;;;43.78;6.88;;;17.70;57.70;;;;;;5035316;28;20025;-59
2021/05/31 10:51:00;;;;;;;41.80;5.78;;;17.80;57.70;;;;;;5042733;28;20045;-58
2021/05/31 10:53:31;;;;;;;38.13;5.77;;;18.00;57.50;;;;;;5009537;28;20559;-59
2021/05/31 10:56:02;;;;;;;43.70;6.72;;;18.00;57.30;;;;;;5040840;28;20272;-60
2021/05/31 10:58:32;;;;;;;27.45;7.13;;;18.10;57.10;;;;;;5039953;28;20191;-59
2021/05/31 11:01:02;;;;;;;43.42;7.07;;;18.20;57.00;;;;;;5023221;28;20361;-59
2021/05/31 11:03:31;;;;;;;46.17;7.45;;;18.20;56.80;;;;;;5042508;28;20045;-59
2021/05/31 11:05:57;;;;;;;55.35;7.35;;;18.30;56.50;;;;;;5042557;28;20030;-59
2021/05/31 11:08:24;;;;;;;42.90;6.05;;;18.50;56.40;;;;;;5026094;28;20043;-59
2021/05/31 11:10:57;;;;;;;41.25;7.43;;;18.50;55.90;;;;;;5024052;28;20155;-59
2021/05/31 11:13:23;;;;;;;58.90;7.32;;;18.60;55.80;;;;;;5026046;28;20032;-59
2021/05/31 11:16:06;;;;;;;57.97;7.85;;;18.80;55.70;;;;;;5025584;28;20068;-60
2021/05/31 11:18:44;;;;;;;51.85;6.97;;;18.90;55.40;;;;;;5025145;28;20060;-59
2021/05/31 11:21:10;;;;;;;30.10;5.28;;;19.00;55.00;;;;;;5025692;28;20025;-59
2021/05/31 11:23:37;;;;;;;30.83;4.97;;;19.10;54.50;;;;;;5024624;28;20037;-60
2021/05/31 11:26:02;;;;;;;30.33;5.07;;;19.20;54.50;;;;;;5042033;28;20559;-60
2021/05/31 11:28:28;;;;;;;36.03;4.78;;;19.40;54.10;;;;;;5025091;28;20045;-59
2021/05/31 11:30:53;;;;;;;29.42;5.40;;;19.50;53.90;;;;;;5040748;28;20484;-59
2021/05/31 11:33:19;;;;;;;19.27;4.50;;;19.60;53.60;;;;;;5023745;28;21551;-59
2021/05/31 11:35:45;;;;;;;21.17;4.18;;;19.60;53.20;;;;;;5024756;28;20028;-59
2021/05/31 11:38:11;;;;;;;44.55;5.70;;;19.70;53.10;;;;;;5041567;28;20037;-59
2021/05/31 11:40:40;;;;;;;22.90;4.60;;;19.70;53.00;;;;;;5043311;28;20514;-60
2021/05/31 11:43:06;;;;;;;18.88;4.15;;;19.90;52.60;;;;;;5043025;28;20166;-59
2021/05/31 11:45:34;;;;;;;38.00;5.30;;;19.90;52.00;;;;;;5026812;28;20037;-60
2021/05/31 11:48:10;;;;;;;27.00;5.15;;;20.00;51.90;;;;;;5025682;28;20028;-60
2021/05/31 11:50:35;;;;;;;;;;;20.10;51.30;;;;;;5042468;28;20528;-59
2021/05/31 11:53:04;;;;;;;28.45;4.40;;;20.20;51.30;;;;;;5043280;28;19915;-59
2021/05/31 11:55:31;;;;;;;31.13;4.45;;;20.20;50.90;;;;;;5010520;28;20107;-59
2021/05/31 11:57:56;;;;;;;32.17;4.75;;;20.30;50.80;;;;;;5026561;28;20041;-59
2021/05/31 12:00:24;;;;;;;36.45;4.30;;;20.40;50.50;;;;;;5008907;28;20070;-59
2021/05/31 12:02:49;;;;;;;16.45;3.70;;;20.50;50.50;;;;;;5025796;28;20021;-59
2021/05/31 12:05:27;;;;;;;14.25;3.55;;;20.50;49.80;;;;;;5024294;28;20657;-59
2021/05/31 12:07:52;;;;;;;19.27;4.13;;;20.60;49.80;;;;;;5041828;28;20048;-59
2021/05/31 12:10:18;;;;;;;40.45;5.15;;;20.70;49.50;;;;;;5044961;28;20033;-61
2021/05/31 12:12:47;;;;;;;26.17;4.28;;;20.80;49.30;;;;;;5040533;28;20552;-59
2021/05/31 12:15:13;;;;;;;14.52;3.72;;;20.80;49.50;;;;;;5040258;28;20029;-59
2021/05/31 12:17:40;;;;;;;35.63;4.97;;;20.90;49.20;;;;;;5042842;28;20160;-60
2021/05/31 12:20:06;;;;;;;20.17;3.38;;;21.00;49.10;;;;;;5029660;28;20567;-58
2021/05/31 12:22:34;;;;;;;23.23;3.25;;;21.00;48.80;;;;;;5042261;28;20075;-59
2021/05/31 12:25:00;;;;;;;20.58;3.50;;;21.10;48.90;;;;;;5042487;28;20068;-59
2021/05/31 12:27:28;;;;;;;19.08;2.95;;;21.20;48.50;;;;;;5036071;28;20055;-59
2021/05/31 12:29:54;;;;;;;17.80;2.97;;;21.20;48.40;;;;;;5046092;28;20382;-60
2021/05/31 12:32:21;;;;;;;11.77;3.05;;;21.30;48.30;;;;;;5025610;28;20014;-59
2021/05/31 12:34:47;;;;;;;23.52;4.15;;;21.30;48.00;;;;;;5026214;28;20029;-60
2021/05/31 12:37:18;;;;;;;30.83;3.78;;;21.40;48.20;;;;;;5043352;28;20153;-59
2021/05/31 12:39:48;;;;;;;24.75;3.28;;;21.50;48.20;;;;;;5028230;28;20397;-60
2021/05/31 12:42:14;;;;;;;28.35;4.53;;;21.60;48.00;;;;;;5045161;28;20033;-60
2021/05/31 12:44:40;;;;;;;26.00;3.50;;;21.60;48.10;;;;;;5032876;28;20100;-60
2021/05/31 12:47:05;;;;;;;16.60;2.80;;;21.70;47.70;;;;;;5045235;28;20130;-60
2021/05/31 12:49:31;;;;;;;26.00;3.88;;;21.80;47.50;;;;;;5044555;28;20504;-60
2021/05/31 12:51:57;;;;;;;20.40;3.08;;;21.80;47.60;;;;;;5044801;28;20988;-59
2021/05/31 12:54:22;;;;;;;22.63;2.97;;;21.90;47.50;;;;;;5023753;28;20037;-60
2021/05/31 12:56:48;;;;;;;32.10;4.03;;;22.00;47.40;;;;;;5044009;28;20112;-60
2021/05/31 12:59:13;;;;;;;24.55;3.80;;;22.10;47.50;;;;;;5027286;28;20045;-61